sensor_id;sensor_type;location;lat;lon;timestamp;temperature;humidity
8939;DHT22;4504;48.810;9.172;2023-01-13T11:40:02;10.70;99.90
8939;DHT22;4504;48.810;9.172;2023-01-13T11:45:55;14.60;99.90
8939;DHT22;4504;48.810;9.172;2023-01-13T11:48:25;14.50;99.90
8939;DHT22;4504;48.810;9.172;2023-01-13T11:50:59;13.60;99.90
8939;DHT22;4504;48.810;9.172;2023-01-13T11:53:42;12.30;99.90
8939;DHT22;4504;48.810;9.172;2023-01-13T11:56:26;11.40;99.90
8939;DHT22;4504;48.810;9.172;2023-01-13T11:59:17;10.90;99.90
8939;DHT22;4504;48.810;9.172;2023-01-13T12:01:59;10.50;99.90
8939;DHT22;4504;48.810;9.172;2023-01-13T12:04:33;10.10;99.90
8939;DHT22;4504;48.810;9.172;2023-01-13T12:07:13;10.00;99.90
8939;DHT22;4504;48.810;9.172;2023-01-13T12:09:56;10.00;99.90
8939;DHT22;4504;48.810;9.172;2023-01-13T12:12:35;10.10;99.90
8939;DHT22;4504;48.810;9.172;2023-01-13T12:15:23;10.10;99.90
8939;DHT22;4504;48.810;9.172;2023-01-13T12:18:15;10.20;99.90
8939;DHT22;4504;48.810;9.172;2023-01-13T12:20:51;10.10;99.90
8939;DHT22;4504;48.810;9.172;2023-01-13T12:23:26;10.10;99.90
8939;DHT22;4504;48.810;9.172;2023-01-13T12:25:58;9.90;99.90
8939;DHT22;4504;48.810;9.172;2023-01-13T12:28:31;9.80;99.90
8939;DHT22;4504;48.810;9.172;2023-01-13T12:31:01;9.80;99.90
8939;DHT22;4504;48.810;9.172;2023-01-13T12:33:42;9.80;99.90
8939;DHT22;4504;48.810;9.172;2023-01-13T12:36:14;9.90;99.90
8939;DHT22;4504;48.810;9.172;2023-01-13T12:38:47;9.80;99.90
8939;DHT22;4504;48.810;9.172;2023-01-13T12:41:21;9.80;99.90
8939;DHT22;4504;48.810;9.172;2023-01-13T12:43:51;9.70;99.90
8939;DHT22;4504;48.810;9.172;2023-01-13T12:46:45;9.80;99.90
8939;DHT22;4504;48.810;9.172;2023-01-13T12:49:21;9.80;99.90
8939;DHT22;4504;48.810;9.172;2023-01-13T12:52:14;9.90;99.90
8939;DHT22;4504;48.810;9.172;2023-01-13T12:55:14;10.00;99.90
8939;DHT22;4504;48.810;9.172;2023-01-13T12:58:13;10.10;99.90
8939;DHT22;4504;48.810;9.172;2023-01-13T13:01:09;10.10;99.90
8939;DHT22;4504;48.810;9.172;2023-01-13T13:03:37;10.00;99.90
8939;DHT22;4504;48.810;9.172;2023-01-13T13:06:09;10.00;99.90
8939;DHT22;4504;48.810;9.172;2023-01-13T13:08:45;10.10;99.90
8939;DHT22;4504;48.810;9.172;2023-01-13T13:11:19;10.10;99.90
8939;DHT22;4504;48.810;9.172;2023-01-13T13:14:06;10.20;99.90
8939;DHT22;4504;48.810;9.172;2023-01-13T13:16:47;10.20;99.90
8939;DHT22;4504;48.810;9.172;2023-01-13T13:19:40;10.20;99.90
8939;DHT22;4504;48.810;9.172;2023-01-13T13:22:37;10.20;99.90
8939;DHT22;4504;48.810;9.172;2023-01-13T13:25:22;10.20;99.90
8939;DHT22;4504;48.810;9.172;2023-01-13T13:31:11;10.40;99.90
8939;DHT22;4504;48.810;9.172;2023-01-13T13:33:52;10.40;99.90
8939;DHT22;4504;48.810;9.172;2023-01-13T13:36:41;10.50;99.90
8939;DHT22;4504;48.810;9.172;2023-01-13T13:39:20;10.60;99.90
8939;DHT22;4504;48.810;9.172;2023-01-13T13:42:11;10.60;99.90
8939;DHT22;4504;48.810;9.172;2023-01-13T13:44:57;10.70;99.90
8939;DHT22;4504;48.810;9.172;2023-01-13T13:47:43;10.80;99.90
8939;DHT22;4504;48.810;9.172;2023-01-13T13:50:14;10.70;99.90
8939;DHT22;4504;48.810;9.172;2023-01-13T13:52:43;10.70;99.90
8939;DHT22;4504;48.810;9.172;2023-01-13T13:55:20;10.60;99.80
8939;DHT22;4504;48.810;9.172;2023-01-13T13:57:49;10.60;99.90
8939;DHT22;4504;48.810;9.172;2023-01-13T14:00:22;10.50;99.90
8939;DHT22;4504;48.810;9.172;2023-01-13T14:02:52;10.50;99.90
8939;DHT22;4504;48.810;9.172;2023-01-13T14:05:21;10.50;99.90
8939;DHT22;4504;48.810;9.172;2023-01-13T14:07:51;10.40;99.90
8939;DHT22;4504;48.810;9.172;2023-01-13T14:10:22;10.30;99.90
8939;DHT22;4504;48.810;9.172;2023-01-13T14:12:50;10.20;99.90
8939;DHT22;4504;48.810;9.172;2023-01-13T14:15:26;10.10;99.90
8939;DHT22;4504;48.810;9.172;2023-01-13T14:17:53;9.90;99.90
8939;DHT22;4504;48.810;9.172;2023-01-13T14:20:20;9.70;99.90
8939;DHT22;4504;48.810;9.172;2023-01-13T14:22:50;9.40;99.90
8939;DHT22;4504;48.810;9.172;2023-01-13T14:25:31;9.10;99.90
8939;DHT22;4504;48.810;9.172;2023-01-13T14:28:06;8.90;99.90
8939;DHT22;4504;48.810;9.172;2023-01-13T14:30:34;8.80;99.90
8939;DHT22;4504;48.810;9.172;2023-01-13T14:33:02;8.70;99.90
8939;DHT22;4504;48.810;9.172;2023-01-13T14:35:29;8.70;99.90
8939;DHT22;4504;48.810;9.172;2023-01-13T14:38:02;8.60;99.90
8939;DHT22;4504;48.810;9.172;2023-01-13T14:40:41;8.60;99.90
8939;DHT22;4504;48.810;9.172;2023-01-13T14:43:17;8.60;99.90
8939;DHT22;4504;48.810;9.172;2023-01-13T14:45:54;8.60;99.90
8939;DHT22;4504;48.810;9.172;2023-01-13T14:48:26;8.60;99.90
8939;DHT22;4504;48.810;9.172;2023-01-13T14:50:56;8.60;99.90
8939;DHT22;4504;48.810;9.172;2023-01-13T14:53:30;8.50;99.90
8939;DHT22;4504;48.810;9.172;2023-01-13T14:59:33;8.40;99.90
8939;DHT22;4504;48.810;9.172;2023-01-13T15:02:00;8.40;99.90
8939;DHT22;4504;48.810;9.172;2023-01-13T15:04:32;8.40;99.90
8939;DHT22;4504;48.810;9.172;2023-01-13T15:07:01;8.40;99.90
8939;DHT22;4504;48.810;9.172;2023-01-13T15:09:33;8.40;99.90
8939;DHT22;4504;48.810;9.172;2023-01-13T15:12:15;8.40;99.90
8939;DHT22;4504;48.810;9.172;2023-01-13T15:14:48;8.30;99.90
8939;DHT22;4504;48.810;9.172;2023-01-13T15:17:16;8.30;99.90
8939;DHT22;4504;48.810;9.172;2023-01-13T15:19:43;8.30;99.90
8939;DHT22;4504;48.810;9.172;2023-01-13T15:22:10;8.30;99.90
8939;DHT22;4504;48.810;9.172;2023-01-13T15:24:37;8.30;99.90
8939;DHT22;4504;48.810;9.172;2023-01-13T15:27:16;8.30;99.90
8939;DHT22;4504;48.810;9.172;2023-01-13T15:29:45;8.30;99.90
8939;DHT22;4504;48.810;9.172;2023-01-13T15:32:17;8.40;99.90
8939;DHT22;4504;48.810;9.172;2023-01-13T15:34:46;8.30;99.90
8939;DHT22;4504;48.810;9.172;2023-01-13T15:37:13;8.30;99.90
8939;DHT22;4504;48.810;9.172;2023-01-13T15:39:41;8.30;99.90
8939;DHT22;4504;48.810;9.172;2023-01-13T15:42:11;8.30;99.90
8939;DHT22;4504;48.810;9.172;2023-01-13T15:44:57;8.30;99.90
8939;DHT22;4504;48.810;9.172;2023-01-13T15:47:43;8.20;99.90
8939;DHT22;4504;48.810;9.172;2023-01-13T15:50:13;8.30;99.90
8939;DHT22;4504;48.810;9.172;2023-01-13T15:52:40;8.30;99.90
8939;DHT22;4504;48.810;9.172;2023-01-13T15:55:08;8.30;99.90
8939;DHT22;4504;48.810;9.172;2023-01-13T15:57:37;8.30;99.90
8939;DHT22;4504;48.810;9.172;2023-01-13T16:00:12;8.30;99.90
8939;DHT22;4504;48.810;9.172;2023-01-13T16:02:39;8.20;99.90
8939;DHT22;4504;48.810;9.172;2023-01-13T16:05:06;8.30;99.90
8939;DHT22;4504;48.810;9.172;2023-01-13T16:07:34;8.30;99.90
8939;DHT22;4504;48.810;9.172;2023-01-13T16:10:01;8.20;99.90
8939;DHT22;4504;48.810;9.172;2023-01-13T16:12:29;8.20;99.90
8939;DHT22;4504;48.810;9.172;2023-01-13T16:14:56;8.20;99.90
8939;DHT22;4504;48.810;9.172;2023-01-13T16:17:25;8.20;99.90
8939;DHT22;4504;48.810;9.172;2023-01-13T16:19:54;8.20;99.90
8939;DHT22;4504;48.810;9.172;2023-01-13T16:22:21;8.20;99.90
8939;DHT22;4504;48.810;9.172;2023-01-13T16:24:48;8.20;99.90
8939;DHT22;4504;48.810;9.172;2023-01-13T16:27:17;8.20;99.90
8939;DHT22;4504;48.810;9.172;2023-01-13T16:29:45;8.20;99.90
8939;DHT22;4504;48.810;9.172;2023-01-13T16:32:13;8.20;99.90
8939;DHT22;4504;48.810;9.172;2023-01-13T16:34:41;8.20;99.90
8939;DHT22;4504;48.810;9.172;2023-01-13T16:37:16;8.20;99.90
8939;DHT22;4504;48.810;9.172;2023-01-13T16:39:44;8.10;99.90
8939;DHT22;4504;48.810;9.172;2023-01-13T16:42:11;8.10;99.90
8939;DHT22;4504;48.810;9.172;2023-01-13T16:44:37;8.10;99.90
8939;DHT22;4504;48.810;9.172;2023-01-13T16:47:05;8.10;99.90
8939;DHT22;4504;48.810;9.172;2023-01-13T16:49:32;8.00;99.90
8939;DHT22;4504;48.810;9.172;2023-01-13T16:52:00;8.00;99.90
8939;DHT22;4504;48.810;9.172;2023-01-13T16:54:27;8.00;99.90
8939;DHT22;4504;48.810;9.172;2023-01-13T16:56:54;8.00;99.90
8939;DHT22;4504;48.810;9.172;2023-01-13T16:59:21;8.10;99.90
8939;DHT22;4504;48.810;9.172;2023-01-13T17:01:48;8.10;99.90
8939;DHT22;4504;48.810;9.172;2023-01-13T17:04:16;8.10;99.90
8939;DHT22;4504;48.810;9.172;2023-01-13T17:06:49;8.10;99.90
8939;DHT22;4504;48.810;9.172;2023-01-13T17:09:19;8.10;99.90
8939;DHT22;4504;48.810;9.172;2023-01-13T17:11:46;8.10;99.90
8939;DHT22;4504;48.810;9.172;2023-01-13T17:14:14;8.20;99.90
8939;DHT22;4504;48.810;9.172;2023-01-13T17:16:43;8.10;99.90
8939;DHT22;4504;48.810;9.172;2023-01-13T17:19:10;8.20;99.90
8939;DHT22;4504;48.810;9.172;2023-01-13T17:21:37;8.10;99.90
8939;DHT22;4504;48.810;9.172;2023-01-13T17:24:05;8.10;99.90
8939;DHT22;4504;48.810;9.172;2023-01-13T17:26:35;8.20;99.90
8939;DHT22;4504;48.810;9.172;2023-01-13T17:29:04;8.30;99.90
8939;DHT22;4504;48.810;9.172;2023-01-13T17:31:32;8.20;99.90
8939;DHT22;4504;48.810;9.172;2023-01-13T17:33:59;8.30;99.90
8939;DHT22;4504;48.810;9.172;2023-01-13T17:36:27;8.30;99.90
8939;DHT22;4504;48.810;9.172;2023-01-13T17:38:54;8.30;99.90
8939;DHT22;4504;48.810;9.172;2023-01-13T17:41:21;8.30;99.90
8939;DHT22;4504;48.810;9.172;2023-01-13T17:43:50;8.40;99.90
8939;DHT22;4504;48.810;9.172;2023-01-13T17:46:18;8.40;99.90
8939;DHT22;4504;48.810;9.172;2023-01-13T17:48:45;8.50;99.90
8939;DHT22;4504;48.810;9.172;2023-01-13T17:51:14;8.50;99.90
8939;DHT22;4504;48.810;9.172;2023-01-13T17:53:41;8.50;99.90
8939;DHT22;4504;48.810;9.172;2023-01-13T17:56:12;8.50;99.90
8939;DHT22;4504;48.810;9.172;2023-01-13T17:58:39;8.40;99.90
8939;DHT22;4504;48.810;9.172;2023-01-13T18:01:10;8.40;99.90
8939;DHT22;4504;48.810;9.172;2023-01-13T18:03:38;8.60;99.90
8939;DHT22;4504;48.810;9.172;2023-01-13T18:06:07;8.60;99.90
8939;DHT22;4504;48.810;9.172;2023-01-13T18:08:34;8.50;99.90
8939;DHT22;4504;48.810;9.172;2023-01-13T18:11:01;8.50;99.90
8939;DHT22;4504;48.810;9.172;2023-01-13T18:13:28;8.50;99.90
8939;DHT22;4504;48.810;9.172;2023-01-13T18:16:01;8.50;99.90
8939;DHT22;4504;48.810;9.172;2023-01-13T18:18:32;8.50;99.90
8939;DHT22;4504;48.810;9.172;2023-01-13T18:21:00;8.50;99.90
8939;DHT22;4504;48.810;9.172;2023-01-13T18:23:44;8.50;99.90
8939;DHT22;4504;48.810;9.172;2023-01-13T18:26:28;8.40;99.90
8939;DHT22;4504;48.810;9.172;2023-01-13T18:29:13;8.40;99.90
8939;DHT22;4504;48.810;9.172;2023-01-13T18:31:40;8.40;99.90
8939;DHT22;4504;48.810;9.172;2023-01-13T18:34:08;8.30;99.90
8939;DHT22;4504;48.810;9.172;2023-01-13T18:36:35;8.30;99.90
8939;DHT22;4504;48.810;9.172;2023-01-13T18:39:03;8.30;99.90
8939;DHT22;4504;48.810;9.172;2023-01-13T18:41:30;8.30;99.90
8939;DHT22;4504;48.810;9.172;2023-01-13T18:44:15;8.30;99.90
8939;DHT22;4504;48.810;9.172;2023-01-13T18:46:41;8.20;99.90
8939;DHT22;4504;48.810;9.172;2023-01-13T18:49:10;8.20;99.90
8939;DHT22;4504;48.810;9.172;2023-01-13T18:51:37;8.20;99.90
8939;DHT22;4504;48.810;9.172;2023-01-13T18:54:04;8.20;99.90
8939;DHT22;4504;48.810;9.172;2023-01-13T18:56:31;8.20;99.90
8939;DHT22;4504;48.810;9.172;2023-01-13T18:58:58;8.20;99.90
8939;DHT22;4504;48.810;9.172;2023-01-13T19:01:27;8.10;99.90
8939;DHT22;4504;48.810;9.172;2023-01-13T19:03:54;8.20;99.90
8939;DHT22;4504;48.810;9.172;2023-01-13T19:06:23;8.10;99.90
8939;DHT22;4504;48.810;9.172;2023-01-13T19:08:51;8.10;99.90
8939;DHT22;4504;48.810;9.172;2023-01-13T19:11:20;8.10;99.90
8939;DHT22;4504;48.810;9.172;2023-01-13T19:13:48;8.10;99.90
8939;DHT22;4504;48.810;9.172;2023-01-13T19:16:16;8.00;99.90
8939;DHT22;4504;48.810;9.172;2023-01-13T19:18:43;8.00;99.90
8939;DHT22;4504;48.810;9.172;2023-01-13T19:21:11;8.00;99.90
8939;DHT22;4504;48.810;9.172;2023-01-13T19:23:39;8.00;99.90
8939;DHT22;4504;48.810;9.172;2023-01-13T19:26:08;7.90;99.90
8939;DHT22;4504;48.810;9.172;2023-01-13T19:28:36;7.80;99.90
8939;DHT22;4504;48.810;9.172;2023-01-13T19:31:07;7.80;99.90
8939;DHT22;4504;48.810;9.172;2023-01-13T19:33:37;7.80;99.90
8939;DHT22;4504;48.810;9.172;2023-01-13T19:36:05;7.70;99.90
8939;DHT22;4504;48.810;9.172;2023-01-13T19:38:35;7.60;99.90
8939;DHT22;4504;48.810;9.172;2023-01-13T19:41:05;7.60;99.90
8939;DHT22;4504;48.810;9.172;2023-01-13T19:43:53;7.60;99.90
8939;DHT22;4504;48.810;9.172;2023-01-13T19:46:37;7.60;99.90
8939;DHT22;4504;48.810;9.172;2023-01-13T19:49:04;7.50;99.90
8939;DHT22;4504;48.810;9.172;2023-01-13T19:51:31;7.50;99.90
8939;DHT22;4504;48.810;9.172;2023-01-13T19:53:58;7.40;99.90
8939;DHT22;4504;48.810;9.172;2023-01-13T19:56:27;7.60;99.90
8939;DHT22;4504;48.810;9.172;2023-01-13T19:58:55;7.60;99.90
8939;DHT22;4504;48.810;9.172;2023-01-13T20:01:22;7.60;99.90
8939;DHT22;4504;48.810;9.172;2023-01-13T20:03:58;7.60;99.90
8939;DHT22;4504;48.810;9.172;2023-01-13T20:06:28;7.50;99.90
8939;DHT22;4504;48.810;9.172;2023-01-13T20:08:55;7.50;99.90
8939;DHT22;4504;48.810;9.172;2023-01-13T20:11:22;7.50;99.90
8939;DHT22;4504;48.810;9.172;2023-01-13T20:13:58;7.60;99.90
8939;DHT22;4504;48.810;9.172;2023-01-13T20:16:25;7.60;99.90
8939;DHT22;4504;48.810;9.172;2023-01-13T20:18:53;7.60;99.90
8939;DHT22;4504;48.810;9.172;2023-01-13T20:21:20;7.60;99.90
8939;DHT22;4504;48.810;9.172;2023-01-13T20:23:51;7.60;99.90
8939;DHT22;4504;48.810;9.172;2023-01-13T20:26:19;7.50;99.90
8939;DHT22;4504;48.810;9.172;2023-01-13T20:28:46;7.50;99.90
8939;DHT22;4504;48.810;9.172;2023-01-13T20:31:14;7.50;99.90
8939;DHT22;4504;48.810;9.172;2023-01-13T20:33:41;7.50;99.90
8939;DHT22;4504;48.810;9.172;2023-01-13T20:36:19;7.50;99.90
8939;DHT22;4504;48.810;9.172;2023-01-13T20:38:48;7.40;99.90
8939;DHT22;4504;48.810;9.172;2023-01-13T20:41:15;7.50;99.90
8939;DHT22;4504;48.810;9.172;2023-01-13T20:44:00;7.40;99.90
8939;DHT22;4504;48.810;9.172;2023-01-13T20:46:28;7.50;99.90
8939;DHT22;4504;48.810;9.172;2023-01-13T20:48:55;7.50;99.90
8939;DHT22;4504;48.810;9.172;2023-01-13T20:51:22;7.50;99.90
8939;DHT22;4504;48.810;9.172;2023-01-13T20:53:49;7.60;99.90
8939;DHT22;4504;48.810;9.172;2023-01-13T20:56:15;7.60;99.90
8939;DHT22;4504;48.810;9.172;2023-01-13T20:58:42;7.50;99.90
8939;DHT22;4504;48.810;9.172;2023-01-13T21:01:09;7.50;99.90
8939;DHT22;4504;48.810;9.172;2023-01-13T21:03:38;7.50;99.90
8939;DHT22;4504;48.810;9.172;2023-01-13T21:06:05;7.50;99.90
8939;DHT22;4504;48.810;9.172;2023-01-13T21:08:32;7.40;99.90
8939;DHT22;4504;48.810;9.172;2023-01-13T21:10:59;7.40;99.90
8939;DHT22;4504;48.810;9.172;2023-01-13T21:13:26;7.40;99.90
8939;DHT22;4504;48.810;9.172;2023-01-13T21:16:11;7.40;99.90
8939;DHT22;4504;48.810;9.172;2023-01-13T21:18:39;7.50;99.90
8939;DHT22;4504;48.810;9.172;2023-01-13T21:21:24;7.50;99.90
8939;DHT22;4504;48.810;9.172;2023-01-13T21:23:51;7.50;99.90
8939;DHT22;4504;48.810;9.172;2023-01-13T21:26:19;7.50;99.90
8939;DHT22;4504;48.810;9.172;2023-01-13T21:28:47;7.50;99.90
8939;DHT22;4504;48.810;9.172;2023-01-13T21:31:14;7.50;99.90
8939;DHT22;4504;48.810;9.172;2023-01-13T21:33:43;7.50;99.90
8939;DHT22;4504;48.810;9.172;2023-01-13T21:36:13;7.50;99.90
8939;DHT22;4504;48.810;9.172;2023-01-13T21:38:40;7.50;99.90
8939;DHT22;4504;48.810;9.172;2023-01-13T21:41:08;7.40;99.90
8939;DHT22;4504;48.810;9.172;2023-01-13T21:43:37;7.40;99.90
8939;DHT22;4504;48.810;9.172;2023-01-13T21:46:22;7.30;99.90
8939;DHT22;4504;48.810;9.172;2023-01-13T21:49:08;7.30;99.90
8939;DHT22;4504;48.810;9.172;2023-01-13T21:51:35;7.30;99.90
8939;DHT22;4504;48.810;9.172;2023-01-13T21:54:02;7.30;99.90
8939;DHT22;4504;48.810;9.172;2023-01-13T21:56:29;7.40;99.90
8939;DHT22;4504;48.810;9.172;2023-01-13T21:58:56;7.40;99.90
8939;DHT22;4504;48.810;9.172;2023-01-13T22:01:23;7.40;99.90
8939;DHT22;4504;48.810;9.172;2023-01-13T22:06:57;7.30;99.90
8939;DHT22;4504;48.810;9.172;2023-01-13T22:09:29;7.20;99.90
8939;DHT22;4504;48.810;9.172;2023-01-13T22:11:56;7.10;99.90
8939;DHT22;4504;48.810;9.172;2023-01-13T22:14:24;7.10;99.90
8939;DHT22;4504;48.810;9.172;2023-01-13T22:16:51;7.10;99.90
8939;DHT22;4504;48.810;9.172;2023-01-13T22:19:20;7.00;99.90
8939;DHT22;4504;48.810;9.172;2023-01-13T22:21:48;7.00;99.90
8939;DHT22;4504;48.810;9.172;2023-01-13T22:24:16;6.90;99.90
8939;DHT22;4504;48.810;9.172;2023-01-13T22:26:43;6.90;99.90
8939;DHT22;4504;48.810;9.172;2023-01-13T22:29:10;6.90;99.90
8939;DHT22;4504;48.810;9.172;2023-01-13T22:31:37;6.80;99.90
8939;DHT22;4504;48.810;9.172;2023-01-13T22:34:04;6.80;99.90
8939;DHT22;4504;48.810;9.172;2023-01-13T22:36:31;6.80;99.90
8939;DHT22;4504;48.810;9.172;2023-01-13T22:38:58;6.80;99.90
8939;DHT22;4504;48.810;9.172;2023-01-13T22:41:27;6.80;99.90
8939;DHT22;4504;48.810;9.172;2023-01-13T22:43:55;6.70;99.90
8939;DHT22;4504;48.810;9.172;2023-01-13T22:46:22;6.70;99.90
8939;DHT22;4504;48.810;9.172;2023-01-13T22:48:49;6.80;99.90
8939;DHT22;4504;48.810;9.172;2023-01-13T22:51:18;6.70;99.90
8939;DHT22;4504;48.810;9.172;2023-01-13T22:53:47;6.70;99.90
8939;DHT22;4504;48.810;9.172;2023-01-13T22:56:16;6.70;99.90
8939;DHT22;4504;48.810;9.172;2023-01-13T22:58:44;6.70;99.90
8939;DHT22;4504;48.810;9.172;2023-01-13T23:01:13;6.70;99.90
8939;DHT22;4504;48.810;9.172;2023-01-13T23:03:40;6.70;99.90
8939;DHT22;4504;48.810;9.172;2023-01-13T23:06:09;6.60;99.90
8939;DHT22;4504;48.810;9.172;2023-01-13T23:08:36;6.60;99.90
8939;DHT22;4504;48.810;9.172;2023-01-13T23:11:06;6.60;99.90
8939;DHT22;4504;48.810;9.172;2023-01-13T23:13:33;6.60;99.90
8939;DHT22;4504;48.810;9.172;2023-01-13T23:16:02;6.70;99.90
8939;DHT22;4504;48.810;9.172;2023-01-13T23:18:30;6.70;99.90
8939;DHT22;4504;48.810;9.172;2023-01-13T23:21:01;6.70;99.90
8939;DHT22;4504;48.810;9.172;2023-01-13T23:23:28;6.70;99.90
8939;DHT22;4504;48.810;9.172;2023-01-13T23:25:55;6.70;99.90
8939;DHT22;4504;48.810;9.172;2023-01-13T23:28:22;6.70;99.90
8939;DHT22;4504;48.810;9.172;2023-01-13T23:30:49;6.60;99.90
8939;DHT22;4504;48.810;9.172;2023-01-13T23:33:17;6.60;99.90
8939;DHT22;4504;48.810;9.172;2023-01-13T23:35:54;6.50;99.90
8939;DHT22;4504;48.810;9.172;2023-01-13T23:38:21;6.50;99.90
8939;DHT22;4504;48.810;9.172;2023-01-13T23:40:48;6.50;99.90
8939;DHT22;4504;48.810;9.172;2023-01-13T23:43:15;6.40;99.90
8939;DHT22;4504;48.810;9.172;2023-01-13T23:45:42;6.40;99.90
8939;DHT22;4504;48.810;9.172;2023-01-13T23:48:09;6.40;99.90
8939;DHT22;4504;48.810;9.172;2023-01-13T23:50:40;6.40;99.90
8939;DHT22;4504;48.810;9.172;2023-01-13T23:53:07;6.40;99.90
8939;DHT22;4504;48.810;9.172;2023-01-13T23:55:34;6.50;99.90
8939;DHT22;4504;48.810;9.172;2023-01-13T23:58:01;6.50;99.90
